sensor_id;sensor_type;location;lat;lon;timestamp;P1;durP1;ratioP1;P2;durP2;ratioP2
10550;SDS011;5324;50.684;3.862;2023-05-29T00:01:09;11.70;;;7.17;;
10550;SDS011;5324;50.684;3.862;2023-05-29T00:03:35;11.60;;;7.40;;
10550;SDS011;5324;50.684;3.862;2023-05-29T00:06:02;12.30;;;7.53;;
10550;SDS011;5324;50.684;3.862;2023-05-29T00:08:28;10.70;;;6.93;;
10550;SDS011;5324;50.684;3.862;2023-05-29T00:10:54;13.90;;;8.00;;
10550;SDS011;5324;50.684;3.862;2023-05-29T00:13:20;15.53;;;7.37;;
10550;SDS011;5324;50.684;3.862;2023-05-29T00:15:46;11.33;;;6.60;;
10550;SDS011;5324;50.684;3.862;2023-05-29T00:18:12;11.77;;;7.53;;
10550;SDS011;5324;50.684;3.862;2023-05-29T00:20:38;11.27;;;7.20;;
10550;SDS011;5324;50.684;3.862;2023-05-29T00:23:04;14.37;;;8.00;;
10550;SDS011;5324;50.684;3.862;2023-05-29T00:25:31;13.47;;;8.00;;
10550;SDS011;5324;50.684;3.862;2023-05-29T00:27:58;10.50;;;7.57;;
10550;SDS011;5324;50.684;3.862;2023-05-29T00:30:24;10.07;;;7.20;;
10550;SDS011;5324;50.684;3.862;2023-05-29T00:32:50;12.87;;;7.53;;
10550;SDS011;5324;50.684;3.862;2023-05-29T00:35:17;13.40;;;7.60;;
10550;SDS011;5324;50.684;3.862;2023-05-29T00:37:43;13.93;;;7.73;;
10550;SDS011;5324;50.684;3.862;2023-05-29T00:40:09;13.93;;;8.60;;
10550;SDS011;5324;50.684;3.862;2023-05-29T00:42:36;9.43;;;7.20;;
10550;SDS011;5324;50.684;3.862;2023-05-29T00:45:02;11.80;;;7.67;;
10550;SDS011;5324;50.684;3.862;2023-05-29T00:47:28;13.27;;;8.17;;
10550;SDS011;5324;50.684;3.862;2023-05-29T00:49:55;12.30;;;7.97;;
10550;SDS011;5324;50.684;3.862;2023-05-29T00:52:22;12.17;;;8.07;;
10550;SDS011;5324;50.684;3.862;2023-05-29T00:54:49;10.07;;;7.57;;
10550;SDS011;5324;50.684;3.862;2023-05-29T00:57:15;12.37;;;7.60;;
10550;SDS011;5324;50.684;3.862;2023-05-29T00:59:42;12.33;;;7.67;;
10550;SDS011;5324;50.684;3.862;2023-05-29T01:02:09;17.07;;;8.93;;
10550;SDS011;5324;50.684;3.862;2023-05-29T01:04:36;13.70;;;7.83;;
10550;SDS011;5324;50.684;3.862;2023-05-29T01:07:03;11.63;;;7.87;;
10550;SDS011;5324;50.684;3.862;2023-05-29T01:09:29;13.70;;;8.00;;
10550;SDS011;5324;50.684;3.862;2023-05-29T01:17:17;10.23;;;7.60;;
10550;SDS011;5324;50.684;3.862;2023-05-29T01:22:12;12.40;;;7.40;;
10550;SDS011;5324;50.684;3.862;2023-05-29T01:24:52;12.53;;;7.83;;
10550;SDS011;5324;50.684;3.862;2023-05-29T01:27:21;14.13;;;8.20;;
10550;SDS011;5324;50.684;3.862;2023-05-29T01:29:49;16.30;;;7.57;;
10550;SDS011;5324;50.684;3.862;2023-05-29T01:32:16;12.63;;;8.00;;
10550;SDS011;5324;50.684;3.862;2023-05-29T01:34:42;10.63;;;7.10;;
10550;SDS011;5324;50.684;3.862;2023-05-29T01:37:08;10.83;;;7.97;;
10550;SDS011;5324;50.684;3.862;2023-05-29T01:39:34;13.53;;;7.70;;
10550;SDS011;5324;50.684;3.862;2023-05-29T01:42:00;10.87;;;7.50;;
10550;SDS011;5324;50.684;3.862;2023-05-29T01:44:27;10.07;;;6.97;;
10550;SDS011;5324;50.684;3.862;2023-05-29T01:46:54;14.17;;;7.47;;
10550;SDS011;5324;50.684;3.862;2023-05-29T01:49:20;13.20;;;7.80;;
10550;SDS011;5324;50.684;3.862;2023-05-29T01:51:47;12.00;;;7.13;;
10550;SDS011;5324;50.684;3.862;2023-05-29T01:54:14;11.07;;;7.10;;
10550;SDS011;5324;50.684;3.862;2023-05-29T01:56:40;9.60;;;6.67;;
10550;SDS011;5324;50.684;3.862;2023-05-29T01:59:07;11.00;;;7.00;;
10550;SDS011;5324;50.684;3.862;2023-05-29T02:01:33;12.33;;;7.13;;
10550;SDS011;5324;50.684;3.862;2023-05-29T02:03:59;10.57;;;7.47;;
10550;SDS011;5324;50.684;3.862;2023-05-29T02:06:25;12.00;;;6.20;;
10550;SDS011;5324;50.684;3.862;2023-05-29T02:08:51;11.00;;;7.43;;
10550;SDS011;5324;50.684;3.862;2023-05-29T02:11:17;12.07;;;6.60;;
10550;SDS011;5324;50.684;3.862;2023-05-29T02:13:43;11.20;;;6.53;;
10550;SDS011;5324;50.684;3.862;2023-05-29T02:16:09;12.53;;;7.03;;
10550;SDS011;5324;50.684;3.862;2023-05-29T02:18:35;13.73;;;7.00;;
10550;SDS011;5324;50.684;3.862;2023-05-29T02:21:01;10.40;;;6.73;;
10550;SDS011;5324;50.684;3.862;2023-05-29T02:23:27;11.40;;;6.57;;
10550;SDS011;5324;50.684;3.862;2023-05-29T02:25:54;11.63;;;6.50;;
10550;SDS011;5324;50.684;3.862;2023-05-29T02:28:20;11.07;;;7.20;;
10550;SDS011;5324;50.684;3.862;2023-05-29T02:30:46;10.57;;;6.80;;
10550;SDS011;5324;50.684;3.862;2023-05-29T02:33:12;9.13;;;6.50;;
10550;SDS011;5324;50.684;3.862;2023-05-29T02:35:38;11.63;;;5.73;;
10550;SDS011;5324;50.684;3.862;2023-05-29T02:38:04;11.37;;;5.70;;
10550;SDS011;5324;50.684;3.862;2023-05-29T02:40:30;10.27;;;6.10;;
10550;SDS011;5324;50.684;3.862;2023-05-29T02:42:56;9.77;;;6.53;;
10550;SDS011;5324;50.684;3.862;2023-05-29T02:45:22;9.17;;;6.50;;
10550;SDS011;5324;50.684;3.862;2023-05-29T02:47:48;11.03;;;6.03;;
10550;SDS011;5324;50.684;3.862;2023-05-29T02:50:14;12.10;;;5.90;;
10550;SDS011;5324;50.684;3.862;2023-05-29T02:52:40;6.90;;;5.50;;
10550;SDS011;5324;50.684;3.862;2023-05-29T02:55:06;11.47;;;6.07;;
10550;SDS011;5324;50.684;3.862;2023-05-29T02:57:32;8.50;;;5.73;;
10550;SDS011;5324;50.684;3.862;2023-05-29T02:59:58;9.33;;;5.73;;
10550;SDS011;5324;50.684;3.862;2023-05-29T03:02:26;9.27;;;5.03;;
10550;SDS011;5324;50.684;3.862;2023-05-29T03:04:52;13.30;;;5.07;;
10550;SDS011;5324;50.684;3.862;2023-05-29T03:07:19;10.90;;;4.77;;
10550;SDS011;5324;50.684;3.862;2023-05-29T03:09:45;9.67;;;5.50;;
10550;SDS011;5324;50.684;3.862;2023-05-29T03:12:11;9.93;;;5.20;;
10550;SDS011;5324;50.684;3.862;2023-05-29T03:14:37;6.87;;;5.07;;
10550;SDS011;5324;50.684;3.862;2023-05-29T03:17:06;8.97;;;4.60;;
10550;SDS011;5324;50.684;3.862;2023-05-29T03:19:32;9.77;;;4.80;;
10550;SDS011;5324;50.684;3.862;2023-05-29T03:21:58;7.60;;;4.50;;
10550;SDS011;5324;50.684;3.862;2023-05-29T03:24:24;9.57;;;4.73;;
10550;SDS011;5324;50.684;3.862;2023-05-29T03:26:50;10.67;;;5.07;;
10550;SDS011;5324;50.684;3.862;2023-05-29T03:29:17;8.77;;;4.80;;
10550;SDS011;5324;50.684;3.862;2023-05-29T03:31:43;8.67;;;4.63;;
10550;SDS011;5324;50.684;3.862;2023-05-29T03:34:09;11.13;;;4.47;;
10550;SDS011;5324;50.684;3.862;2023-05-29T03:36:35;10.43;;;4.00;;
10550;SDS011;5324;50.684;3.862;2023-05-29T03:39:04;10.60;;;4.60;;
10550;SDS011;5324;50.684;3.862;2023-05-29T03:41:31;10.60;;;3.93;;
10550;SDS011;5324;50.684;3.862;2023-05-29T03:43:57;12.23;;;4.13;;
10550;SDS011;5324;50.684;3.862;2023-05-29T03:46:23;5.57;;;3.70;;
10550;SDS011;5324;50.684;3.862;2023-05-29T03:48:49;7.77;;;2.97;;
10550;SDS011;5324;50.684;3.862;2023-05-29T03:51:15;7.70;;;3.17;;
10550;SDS011;5324;50.684;3.862;2023-05-29T03:53:41;8.67;;;3.60;;
10550;SDS011;5324;50.684;3.862;2023-05-29T03:56:07;10.20;;;3.43;;
10550;SDS011;5324;50.684;3.862;2023-05-29T03:58:33;11.03;;;3.00;;
10550;SDS011;5324;50.684;3.862;2023-05-29T04:00:59;8.10;;;3.17;;
10550;SDS011;5324;50.684;3.862;2023-05-29T04:03:25;9.33;;;4.37;;
10550;SDS011;5324;50.684;3.862;2023-05-29T04:05:51;11.93;;;3.03;;
10550;SDS011;5324;50.684;3.862;2023-05-29T04:08:17;13.00;;;3.77;;
10550;SDS011;5324;50.684;3.862;2023-05-29T04:10:43;9.13;;;3.50;;
10550;SDS011;5324;50.684;3.862;2023-05-29T04:13:09;6.33;;;3.53;;
10550;SDS011;5324;50.684;3.862;2023-05-29T04:15:35;8.73;;;3.50;;
10550;SDS011;5324;50.684;3.862;2023-05-29T04:18:01;11.50;;;3.80;;
10550;SDS011;5324;50.684;3.862;2023-05-29T04:20:27;8.03;;;2.80;;
10550;SDS011;5324;50.684;3.862;2023-05-29T04:22:53;6.80;;;2.77;;
10550;SDS011;5324;50.684;3.862;2023-05-29T04:25:19;8.83;;;3.60;;
10550;SDS011;5324;50.684;3.862;2023-05-29T04:27:45;7.30;;;3.50;;
10550;SDS011;5324;50.684;3.862;2023-05-29T04:30:14;6.60;;;3.40;;
10550;SDS011;5324;50.684;3.862;2023-05-29T04:32:40;16.27;;;4.00;;
10550;SDS011;5324;50.684;3.862;2023-05-29T04:35:06;10.63;;;2.97;;
10550;SDS011;5324;50.684;3.862;2023-05-29T04:37:32;6.53;;;3.17;;
10550;SDS011;5324;50.684;3.862;2023-05-29T04:40:04;10.70;;;3.07;;
10550;SDS011;5324;50.684;3.862;2023-05-29T04:42:37;9.10;;;3.07;;
10550;SDS011;5324;50.684;3.862;2023-05-29T04:45:04;7.83;;;3.60;;
10550;SDS011;5324;50.684;3.862;2023-05-29T04:47:30;8.47;;;3.43;;
10550;SDS011;5324;50.684;3.862;2023-05-29T04:49:58;6.83;;;2.93;;
10550;SDS011;5324;50.684;3.862;2023-05-29T04:52:25;7.17;;;2.67;;
10550;SDS011;5324;50.684;3.862;2023-05-29T04:54:51;11.00;;;2.77;;
10550;SDS011;5324;50.684;3.862;2023-05-29T04:57:17;8.00;;;2.90;;
10550;SDS011;5324;50.684;3.862;2023-05-29T04:59:43;8.07;;;3.07;;
10550;SDS011;5324;50.684;3.862;2023-05-29T05:02:09;17.30;;;3.33;;
10550;SDS011;5324;50.684;3.862;2023-05-29T05:04:35;7.40;;;3.17;;
10550;SDS011;5324;50.684;3.862;2023-05-29T05:07:01;11.70;;;3.00;;
10550;SDS011;5324;50.684;3.862;2023-05-29T05:09:28;9.60;;;2.67;;
10550;SDS011;5324;50.684;3.862;2023-05-29T05:11:54;8.80;;;3.37;;
10550;SDS011;5324;50.684;3.862;2023-05-29T05:14:20;8.27;;;2.80;;
10550;SDS011;5324;50.684;3.862;2023-05-29T05:16:46;7.77;;;2.80;;
10550;SDS011;5324;50.684;3.862;2023-05-29T05:19:12;10.37;;;2.90;;
10550;SDS011;5324;50.684;3.862;2023-05-29T05:21:38;8.60;;;3.00;;
10550;SDS011;5324;50.684;3.862;2023-05-29T05:24:04;10.60;;;2.53;;
10550;SDS011;5324;50.684;3.862;2023-05-29T05:26:31;7.23;;;2.53;;
10550;SDS011;5324;50.684;3.862;2023-05-29T05:28:57;7.03;;;2.80;;
10550;SDS011;5324;50.684;3.862;2023-05-29T05:31:24;6.43;;;2.63;;
10550;SDS011;5324;50.684;3.862;2023-05-29T05:33:51;6.40;;;2.60;;
10550;SDS011;5324;50.684;3.862;2023-05-29T05:36:17;12.87;;;3.40;;
10550;SDS011;5324;50.684;3.862;2023-05-29T05:38:43;6.70;;;2.67;;
10550;SDS011;5324;50.684;3.862;2023-05-29T05:41:09;7.83;;;2.50;;
10550;SDS011;5324;50.684;3.862;2023-05-29T05:43:36;5.97;;;2.23;;
10550;SDS011;5324;50.684;3.862;2023-05-29T05:46:02;5.70;;;3.17;;
10550;SDS011;5324;50.684;3.862;2023-05-29T05:48:28;10.60;;;2.80;;
10550;SDS011;5324;50.684;3.862;2023-05-29T05:50:54;8.33;;;2.67;;
10550;SDS011;5324;50.684;3.862;2023-05-29T05:53:20;6.63;;;2.63;;
10550;SDS011;5324;50.684;3.862;2023-05-29T05:55:46;8.07;;;3.23;;
10550;SDS011;5324;50.684;3.862;2023-05-29T05:58:12;10.57;;;2.90;;
10550;SDS011;5324;50.684;3.862;2023-05-29T06:00:39;6.30;;;2.70;;
10550;SDS011;5324;50.684;3.862;2023-05-29T06:03:05;10.07;;;2.97;;
10550;SDS011;5324;50.684;3.862;2023-05-29T06:05:31;9.30;;;3.10;;
10550;SDS011;5324;50.684;3.862;2023-05-29T06:07:59;9.17;;;2.93;;
10550;SDS011;5324;50.684;3.862;2023-05-29T06:10:25;7.90;;;2.90;;
10550;SDS011;5324;50.684;3.862;2023-05-29T06:12:51;9.30;;;2.90;;
10550;SDS011;5324;50.684;3.862;2023-05-29T06:15:17;9.90;;;2.80;;
10550;SDS011;5324;50.684;3.862;2023-05-29T06:17:43;12.10;;;3.47;;
10550;SDS011;5324;50.684;3.862;2023-05-29T06:20:09;11.07;;;3.00;;
10550;SDS011;5324;50.684;3.862;2023-05-29T06:22:36;9.43;;;2.87;;
10550;SDS011;5324;50.684;3.862;2023-05-29T06:25:02;11.23;;;3.40;;
10550;SDS011;5324;50.684;3.862;2023-05-29T06:27:28;7.80;;;2.80;;
10550;SDS011;5324;50.684;3.862;2023-05-29T06:29:55;11.77;;;3.03;;
10550;SDS011;5324;50.684;3.862;2023-05-29T06:32:21;7.57;;;2.37;;
10550;SDS011;5324;50.684;3.862;2023-05-29T06:34:47;7.80;;;2.90;;
10550;SDS011;5324;50.684;3.862;2023-05-29T06:37:13;11.43;;;3.40;;
10550;SDS011;5324;50.684;3.862;2023-05-29T06:39:39;10.80;;;3.50;;
10550;SDS011;5324;50.684;3.862;2023-05-29T06:42:07;6.23;;;2.80;;
10550;SDS011;5324;50.684;3.862;2023-05-29T06:44:33;7.53;;;2.60;;
10550;SDS011;5324;50.684;3.862;2023-05-29T06:46:59;8.87;;;3.20;;
10550;SDS011;5324;50.684;3.862;2023-05-29T06:49:25;8.40;;;3.13;;
10550;SDS011;5324;50.684;3.862;2023-05-29T06:51:51;8.97;;;3.30;;
10550;SDS011;5324;50.684;3.862;2023-05-29T06:54:17;6.03;;;2.77;;
10550;SDS011;5324;50.684;3.862;2023-05-29T06:56:43;12.67;;;3.53;;
10550;SDS011;5324;50.684;3.862;2023-05-29T06:59:09;9.13;;;2.67;;
10550;SDS011;5324;50.684;3.862;2023-05-29T07:01:35;7.90;;;3.00;;
10550;SDS011;5324;50.684;3.862;2023-05-29T07:04:01;9.43;;;2.80;;
10550;SDS011;5324;50.684;3.862;2023-05-29T07:06:27;11.80;;;3.43;;
10550;SDS011;5324;50.684;3.862;2023-05-29T07:08:53;12.10;;;3.73;;
10550;SDS011;5324;50.684;3.862;2023-05-29T07:11:19;12.80;;;3.40;;
10550;SDS011;5324;50.684;3.862;2023-05-29T07:13:45;7.63;;;3.07;;
10550;SDS011;5324;50.684;3.862;2023-05-29T07:16:11;8.90;;;3.00;;
10550;SDS011;5324;50.684;3.862;2023-05-29T07:18:37;6.97;;;2.63;;
10550;SDS011;5324;50.684;3.862;2023-05-29T07:21:03;13.57;;;3.50;;
10550;SDS011;5324;50.684;3.862;2023-05-29T07:23:31;8.37;;;3.37;;
10550;SDS011;5324;50.684;3.862;2023-05-29T07:25:57;9.87;;;3.47;;
10550;SDS011;5324;50.684;3.862;2023-05-29T07:28:23;7.73;;;3.10;;
10550;SDS011;5324;50.684;3.862;2023-05-29T07:30:49;8.67;;;2.90;;
10550;SDS011;5324;50.684;3.862;2023-05-29T07:33:15;10.83;;;3.13;;
10550;SDS011;5324;50.684;3.862;2023-05-29T07:35:41;7.97;;;2.90;;
10550;SDS011;5324;50.684;3.862;2023-05-29T07:38:07;8.27;;;2.80;;
10550;SDS011;5324;50.684;3.862;2023-05-29T07:40:33;7.67;;;3.20;;
10550;SDS011;5324;50.684;3.862;2023-05-29T07:42:59;10.57;;;3.17;;
10550;SDS011;5324;50.684;3.862;2023-05-29T07:45:25;8.73;;;3.13;;
10550;SDS011;5324;50.684;3.862;2023-05-29T07:47:51;7.53;;;2.70;;
10550;SDS011;5324;50.684;3.862;2023-05-29T07:50:17;10.87;;;3.10;;
10550;SDS011;5324;50.684;3.862;2023-05-29T07:52:43;9.87;;;3.20;;
10550;SDS011;5324;50.684;3.862;2023-05-29T07:55:09;8.93;;;2.37;;
10550;SDS011;5324;50.684;3.862;2023-05-29T07:57:35;8.53;;;3.20;;
10550;SDS011;5324;50.684;3.862;2023-05-29T08:00:02;10.20;;;2.90;;
10550;SDS011;5324;50.684;3.862;2023-05-29T08:02:34;8.47;;;2.37;;
10550;SDS011;5324;50.684;3.862;2023-05-29T08:05:01;11.30;;;3.37;;
10550;SDS011;5324;50.684;3.862;2023-05-29T08:07:27;5.20;;;2.87;;
10550;SDS011;5324;50.684;3.862;2023-05-29T08:09:53;8.60;;;2.67;;
10550;SDS011;5324;50.684;3.862;2023-05-29T08:12:20;8.93;;;2.97;;
10550;SDS011;5324;50.684;3.862;2023-05-29T08:14:46;8.13;;;2.83;;
10550;SDS011;5324;50.684;3.862;2023-05-29T08:17:12;5.87;;;2.97;;
10550;SDS011;5324;50.684;3.862;2023-05-29T08:19:38;5.53;;;2.60;;
10550;SDS011;5324;50.684;3.862;2023-05-29T08:22:04;11.03;;;2.87;;
10550;SDS011;5324;50.684;3.862;2023-05-29T08:24:30;6.63;;;2.73;;
10550;SDS011;5324;50.684;3.862;2023-05-29T08:26:56;7.40;;;2.90;;
10550;SDS011;5324;50.684;3.862;2023-05-29T08:29:23;9.50;;;2.80;;
10550;SDS011;5324;50.684;3.862;2023-05-29T08:31:49;6.00;;;2.60;;
10550;SDS011;5324;50.684;3.862;2023-05-29T08:34:15;6.33;;;2.70;;
10550;SDS011;5324;50.684;3.862;2023-05-29T08:36:42;9.13;;;3.23;;
10550;SDS011;5324;50.684;3.862;2023-05-29T08:39:08;6.90;;;3.17;;
10550;SDS011;5324;50.684;3.862;2023-05-29T08:44:09;6.50;;;2.77;;
10550;SDS011;5324;50.684;3.862;2023-05-29T08:46:39;8.30;;;2.70;;
10550;SDS011;5324;50.684;3.862;2023-05-29T08:49:05;8.40;;;2.93;;
10550;SDS011;5324;50.684;3.862;2023-05-29T08:51:36;5.60;;;2.70;;
10550;SDS011;5324;50.684;3.862;2023-05-29T08:54:03;6.90;;;2.70;;
10550;SDS011;5324;50.684;3.862;2023-05-29T08:56:29;6.57;;;2.70;;
10550;SDS011;5324;50.684;3.862;2023-05-29T08:58:56;6.00;;;2.70;;
10550;SDS011;5324;50.684;3.862;2023-05-29T09:01:23;5.73;;;2.53;;
10550;SDS011;5324;50.684;3.862;2023-05-29T09:03:50;6.17;;;2.67;;
10550;SDS011;5324;50.684;3.862;2023-05-29T09:06:16;6.60;;;2.80;;
10550;SDS011;5324;50.684;3.862;2023-05-29T09:08:43;8.77;;;2.67;;
10550;SDS011;5324;50.684;3.862;2023-05-29T09:11:09;10.33;;;3.10;;
10550;SDS011;5324;50.684;3.862;2023-05-29T09:13:35;6.27;;;2.73;;
10550;SDS011;5324;50.684;3.862;2023-05-29T09:16:01;5.70;;;2.50;;
10550;SDS011;5324;50.684;3.862;2023-05-29T09:18:31;4.80;;;2.43;;
10550;SDS011;5324;50.684;3.862;2023-05-29T09:20:58;6.70;;;2.77;;
10550;SDS011;5324;50.684;3.862;2023-05-29T09:23:27;6.00;;;2.60;;
10550;SDS011;5324;50.684;3.862;2023-05-29T09:25:53;8.13;;;2.97;;
10550;SDS011;5324;50.684;3.862;2023-05-29T09:28:20;7.80;;;2.83;;
10550;SDS011;5324;50.684;3.862;2023-05-29T09:30:48;7.93;;;2.60;;
10550;SDS011;5324;50.684;3.862;2023-05-29T09:33:15;8.87;;;2.90;;
10550;SDS011;5324;50.684;3.862;2023-05-29T09:35:42;8.73;;;3.40;;
10550;SDS011;5324;50.684;3.862;2023-05-29T09:38:10;9.77;;;3.30;;
10550;SDS011;5324;50.684;3.862;2023-05-29T09:40:37;9.20;;;2.85;;
10550;SDS011;5324;50.684;3.862;2023-05-29T09:45:29;9.20;;;2.53;;
10550;SDS011;5324;50.684;3.862;2023-05-29T09:47:56;12.93;;;3.00;;
10550;SDS011;5324;50.684;3.862;2023-05-29T09:50:25;10.93;;;3.17;;
10550;SDS011;5324;50.684;3.862;2023-05-29T09:52:51;6.23;;;2.40;;
10550;SDS011;5324;50.684;3.862;2023-05-29T09:55:20;10.23;;;3.30;;
10550;SDS011;5324;50.684;3.862;2023-05-29T09:57:46;9.30;;;3.38;;
10550;SDS011;5324;50.684;3.862;2023-05-29T10:00:14;9.88;;;2.72;;
10550;SDS011;5324;50.684;3.862;2023-05-29T10:02:41;12.15;;;3.08;;
10550;SDS011;5324;50.684;3.862;2023-05-29T10:05:07;6.85;;;2.67;;
10550;SDS011;5324;50.684;3.862;2023-05-29T10:07:35;7.65;;;2.88;;
10550;SDS011;5324;50.684;3.862;2023-05-29T10:10:04;7.63;;;2.67;;
10550;SDS011;5324;50.684;3.862;2023-05-29T10:12:38;7.32;;;2.60;;
10550;SDS011;5324;50.684;3.862;2023-05-29T10:15:06;6.75;;;2.70;;
10550;SDS011;5324;50.684;3.862;2023-05-29T10:17:33;5.85;;;2.50;;
10550;SDS011;5324;50.684;3.862;2023-05-29T10:20:01;5.80;;;2.47;;
10550;SDS011;5324;50.684;3.862;2023-05-29T10:22:27;6.22;;;3.03;;
10550;SDS011;5324;50.684;3.862;2023-05-29T10:24:54;8.80;;;2.90;;
10550;SDS011;5324;50.684;3.862;2023-05-29T10:27:22;6.78;;;2.60;;
10550;SDS011;5324;50.684;3.862;2023-05-29T10:29:49;6.25;;;2.83;;
10550;SDS011;5324;50.684;3.862;2023-05-29T10:32:40;7.00;;;2.63;;
10550;SDS011;5324;50.684;3.862;2023-05-29T10:35:14;10.70;;;2.80;;
10550;SDS011;5324;50.684;3.862;2023-05-29T10:37:48;8.10;;;2.30;;
10550;SDS011;5324;50.684;3.862;2023-05-29T10:40:15;8.25;;;2.40;;
10550;SDS011;5324;50.684;3.862;2023-05-29T10:42:48;10.90;;;2.95;;
10550;SDS011;5324;50.684;3.862;2023-05-29T10:53:03;6.28;;;2.55;;
10550;SDS011;5324;50.684;3.862;2023-05-29T10:55:36;5.50;;;2.28;;
10550;SDS011;5324;50.684;3.862;2023-05-29T10:58:05;6.78;;;2.47;;
10550;SDS011;5324;50.684;3.862;2023-05-29T11:00:32;5.30;;;2.40;;
10550;SDS011;5324;50.684;3.862;2023-05-29T11:03:07;5.40;;;2.83;;
10550;SDS011;5324;50.684;3.862;2023-05-29T11:05:34;10.55;;;2.90;;
10550;SDS011;5324;50.684;3.862;2023-05-29T11:08:01;7.68;;;2.40;;
10550;SDS011;5324;50.684;3.862;2023-05-29T11:10:44;8.00;;;2.75;;
10550;SDS011;5324;50.684;3.862;2023-05-29T11:13:11;9.77;;;3.17;;
10550;SDS011;5324;50.684;3.862;2023-05-29T11:16:12;4.90;;;2.28;;
10550;SDS011;5324;50.684;3.862;2023-05-29T11:18:40;6.32;;;2.67;;
10550;SDS011;5324;50.684;3.862;2023-05-29T11:21:12;8.43;;;2.83;;
10550;SDS011;5324;50.684;3.862;2023-05-29T11:23:39;5.00;;;2.22;;
10550;SDS011;5324;50.684;3.862;2023-05-29T11:26:08;13.18;;;3.63;;
10550;SDS011;5324;50.684;3.862;2023-05-29T11:28:35;9.98;;;2.80;;
10550;SDS011;5324;50.684;3.862;2023-05-29T11:31:02;9.13;;;2.70;;
10550;SDS011;5324;50.684;3.862;2023-05-29T11:33:34;7.38;;;2.40;;
10550;SDS011;5324;50.684;3.862;2023-05-29T11:36:01;8.48;;;2.47;;
10550;SDS011;5324;50.684;3.862;2023-05-29T11:38:27;4.82;;;2.22;;
10550;SDS011;5324;50.684;3.862;2023-05-29T11:40:54;7.18;;;2.30;;
10550;SDS011;5324;50.684;3.862;2023-05-29T11:43:20;10.48;;;2.88;;
10550;SDS011;5324;50.684;3.862;2023-05-29T11:45:46;7.85;;;2.83;;
10550;SDS011;5324;50.684;3.862;2023-05-29T11:48:12;8.85;;;2.75;;
10550;SDS011;5324;50.684;3.862;2023-05-29T11:50:38;6.22;;;2.70;;
10550;SDS011;5324;50.684;3.862;2023-05-29T11:53:06;8.77;;;2.60;;
10550;SDS011;5324;50.684;3.862;2023-05-29T11:55:33;8.75;;;2.97;;
10550;SDS011;5324;50.684;3.862;2023-05-29T11:57:59;7.72;;;2.83;;
10550;SDS011;5324;50.684;3.862;2023-05-29T12:00:26;8.60;;;2.53;;
10550;SDS011;5324;50.684;3.862;2023-05-29T12:02:57;6.28;;;2.35;;
10550;SDS011;5324;50.684;3.862;2023-05-29T12:05:28;10.38;;;2.83;;
10550;SDS011;5324;50.684;3.862;2023-05-29T12:07:55;10.00;;;2.50;;
10550;SDS011;5324;50.684;3.862;2023-05-29T12:10:22;9.85;;;2.08;;
10550;SDS011;5324;50.684;3.862;2023-05-29T12:12:55;8.80;;;2.65;;
10550;SDS011;5324;50.684;3.862;2023-05-29T12:15:22;4.47;;;2.50;;
10550;SDS011;5324;50.684;3.862;2023-05-29T12:17:50;6.63;;;2.58;;
10550;SDS011;5324;50.684;3.862;2023-05-29T12:20:17;5.75;;;2.38;;
10550;SDS011;5324;50.684;3.862;2023-05-29T12:22:45;5.85;;;3.03;;
10550;SDS011;5324;50.684;3.862;2023-05-29T12:25:18;7.43;;;2.80;;
10550;SDS011;5324;50.684;3.862;2023-05-29T12:27:45;7.03;;;2.78;;
10550;SDS011;5324;50.684;3.862;2023-05-29T12:30:12;7.55;;;2.65;;
10550;SDS011;5324;50.684;3.862;2023-05-29T12:32:40;7.93;;;2.60;;
10550;SDS011;5324;50.684;3.862;2023-05-29T12:35:22;7.00;;;2.67;;
10550;SDS011;5324;50.684;3.862;2023-05-29T12:37:52;3.67;;;2.20;;
10550;SDS011;5324;50.684;3.862;2023-05-29T12:40:20;5.60;;;2.40;;
10550;SDS011;5324;50.684;3.862;2023-05-29T12:42:47;7.05;;;2.28;;
10550;SDS011;5324;50.684;3.862;2023-05-29T12:45:13;7.07;;;2.80;;
10550;SDS011;5324;50.684;3.862;2023-05-29T12:50:31;7.20;;;2.72;;
10550;SDS011;5324;50.684;3.862;2023-05-29T12:55:27;6.70;;;2.83;;
10550;SDS011;5324;50.684;3.862;2023-05-29T12:57:53;6.30;;;2.58;;
10550;SDS011;5324;50.684;3.862;2023-05-29T13:00:20;9.00;;;2.60;;
10550;SDS011;5324;50.684;3.862;2023-05-29T13:02:47;5.90;;;2.13;;
10550;SDS011;5324;50.684;3.862;2023-05-29T13:05:13;5.63;;;2.60;;
10550;SDS011;5324;50.684;3.862;2023-05-29T13:07:40;6.78;;;2.30;;
10550;SDS011;5324;50.684;3.862;2023-05-29T13:10:07;8.18;;;2.75;;
10550;SDS011;5324;50.684;3.862;2023-05-29T13:12:33;5.18;;;2.17;;
10550;SDS011;5324;50.684;3.862;2023-05-29T13:14:59;8.30;;;2.30;;
10550;SDS011;5324;50.684;3.862;2023-05-29T13:17:25;7.55;;;2.10;;
10550;SDS011;5324;50.684;3.862;2023-05-29T13:19:51;5.03;;;2.50;;
10550;SDS011;5324;50.684;3.862;2023-05-29T13:22:17;6.63;;;2.75;;
10550;SDS011;5324;50.684;3.862;2023-05-29T13:24:44;5.65;;;2.80;;
10550;SDS011;5324;50.684;3.862;2023-05-29T13:27:11;6.15;;;2.72;;
10550;SDS011;5324;50.684;3.862;2023-05-29T13:29:40;6.10;;;2.30;;
10550;SDS011;5324;50.684;3.862;2023-05-29T13:32:06;6.63;;;2.42;;
10550;SDS011;5324;50.684;3.862;2023-05-29T13:34:32;6.00;;;2.40;;
10550;SDS011;5324;50.684;3.862;2023-05-29T13:36:58;7.70;;;2.53;;
10550;SDS011;5324;50.684;3.862;2023-05-29T13:39:27;5.13;;;2.47;;
10550;SDS011;5324;50.684;3.862;2023-05-29T13:41:53;9.23;;;2.60;;
10550;SDS011;5324;50.684;3.862;2023-05-29T13:44:19;4.85;;;2.38;;
10550;SDS011;5324;50.684;3.862;2023-05-29T13:46:46;5.45;;;2.30;;
10550;SDS011;5324;50.684;3.862;2023-05-29T13:49:12;7.85;;;2.60;;
10550;SDS011;5324;50.684;3.862;2023-05-29T13:51:38;6.63;;;2.58;;
10550;SDS011;5324;50.684;3.862;2023-05-29T13:54:04;7.78;;;2.78;;
10550;SDS011;5324;50.684;3.862;2023-05-29T13:56:30;8.07;;;3.40;;
10550;SDS011;5324;50.684;3.862;2023-05-29T13:58:57;4.97;;;2.45;;
10550;SDS011;5324;50.684;3.862;2023-05-29T14:01:29;6.18;;;2.85;;
10550;SDS011;5324;50.684;3.862;2023-05-29T14:03:55;7.18;;;2.60;;
10550;SDS011;5324;50.684;3.862;2023-05-29T14:06:22;4.53;;;2.25;;
10550;SDS011;5324;50.684;3.862;2023-05-29T14:08:48;6.20;;;3.10;;
10550;SDS011;5324;50.684;3.862;2023-05-29T14:11:14;5.85;;;2.72;;
10550;SDS011;5324;50.684;3.862;2023-05-29T14:13:40;6.20;;;2.85;;
10550;SDS011;5324;50.684;3.862;2023-05-29T14:16:06;5.90;;;2.55;;
10550;SDS011;5324;50.684;3.862;2023-05-29T14:18:32;7.60;;;2.92;;
10550;SDS011;5324;50.684;3.862;2023-05-29T14:20:58;6.40;;;2.47;;
10550;SDS011;5324;50.684;3.862;2023-05-29T14:23:25;7.85;;;2.63;;
10550;SDS011;5324;50.684;3.862;2023-05-29T14:25:51;7.53;;;3.40;;
10550;SDS011;5324;50.684;3.862;2023-05-29T14:28:17;6.28;;;2.60;;
10550;SDS011;5324;50.684;3.862;2023-05-29T14:30:43;7.07;;;2.40;;
10550;SDS011;5324;50.684;3.862;2023-05-29T14:33:09;7.35;;;3.20;;
10550;SDS011;5324;50.684;3.862;2023-05-29T14:35:35;5.82;;;2.55;;
10550;SDS011;5324;50.684;3.862;2023-05-29T14:38:01;8.25;;;2.65;;
10550;SDS011;5324;50.684;3.862;2023-05-29T14:40:27;6.03;;;2.90;;
10550;SDS011;5324;50.684;3.862;2023-05-29T14:42:53;7.10;;;2.78;;
10550;SDS011;5324;50.684;3.862;2023-05-29T14:45:19;6.43;;;2.85;;
10550;SDS011;5324;50.684;3.862;2023-05-29T14:47:45;11.10;;;2.83;;
10550;SDS011;5324;50.684;3.862;2023-05-29T14:50:11;6.03;;;2.50;;
10550;SDS011;5324;50.684;3.862;2023-05-29T14:52:37;8.25;;;3.10;;
10550;SDS011;5324;50.684;3.862;2023-05-29T14:55:04;10.40;;;2.85;;
10550;SDS011;5324;50.684;3.862;2023-05-29T14:57:30;12.50;;;2.70;;
10550;SDS011;5324;50.684;3.862;2023-05-29T14:59:58;8.30;;;3.67;;
10550;SDS011;5324;50.684;3.862;2023-05-29T15:02:24;5.03;;;2.60;;
10550;SDS011;5324;50.684;3.862;2023-05-29T15:04:50;8.70;;;3.20;;
10550;SDS011;5324;50.684;3.862;2023-05-29T15:07:16;4.65;;;2.88;;
10550;SDS011;5324;50.684;3.862;2023-05-29T15:09:43;10.35;;;3.35;;
10550;SDS011;5324;50.684;3.862;2023-05-29T15:12:09;6.65;;;2.80;;
10550;SDS011;5324;50.684;3.862;2023-05-29T15:14:35;5.90;;;2.65;;
10550;SDS011;5324;50.684;3.862;2023-05-29T15:17:02;7.32;;;2.70;;
10550;SDS011;5324;50.684;3.862;2023-05-29T15:19:29;9.07;;;2.88;;
10550;SDS011;5324;50.684;3.862;2023-05-29T15:21:56;4.57;;;2.70;;